TimeMST,TemperatureF,Dew PointF,Humidity,Sea Level PressureIn,VisibilityMPH,Wind Direction,Wind SpeedMPH,Gust SpeedMPH,PrecipitationIn,Events,Conditions,WindDirDegrees,DateUTC
12:55 AM,17.1,12.9,84,30.54,10.0,Calm,Calm,-,N/A,,Clear,0,2014-01-17 07:55:00
1:55 AM,17.1,12.9,84,30.51,9.0,Calm,Calm,-,N/A,,Clear,0,2014-01-17 08:55:00
2:55 AM,17.1,12.0,81,30.53,10.0,Calm,Calm,-,N/A,,Clear,0,2014-01-17 09:55:00
3:55 AM,15.1,10.9,84,30.52,10.0,SSW,3.5,-,N/A,,Clear,210,2014-01-17 10:55:00
4:55 AM,12.9,9.0,84,30.55,10.0,Calm,Calm,-,N/A,,Clear,0,2014-01-17 11:55:00
5:55 AM,16.0,10.9,81,30.54,10.0,SSE,4.6,-,N/A,,Clear,160,2014-01-17 12:55:00
6:55 AM,12.0,9.0,88,30.56,10.0,Calm,Calm,-,N/A,,Clear,0,2014-01-17 13:55:00
7:55 AM,12.0,8.1,84,30.56,10.0,Calm,Calm,-,N/A,,Clear,0,2014-01-17 14:55:00
8:55 AM,14.0,10.0,84,30.56,9.0,Calm,Calm,-,N/A,,Clear,0,2014-01-17 15:55:00
9:55 AM,17.1,12.0,81,30.55,10.0,Calm,Calm,-,N/A,,Clear,0,2014-01-17 16:55:00
10:55 AM,23.0,15.1,72,30.53,10.0,NNE,3.5,-,N/A,,Clear,20,2014-01-17 17:55:00
11:55 AM,27.0,16.0,63,30.49,10.0,Calm,Calm,-,N/A,,Clear,0,2014-01-17 18:55:00
12:55 PM,30.0,16.0,56,30.45,10.0,ESE,3.5,-,N/A,,Clear,120,2014-01-17 19:55:00
1:55 PM,35.1,14.0,42,30.42,10.0,North,3.5,-,N/A,,Clear,350,2014-01-17 20:55:00
2:55 PM,35.1,14.0,42,30.40,10.0,Calm,Calm,-,N/A,,Clear,0,2014-01-17 21:55:00
3:55 PM,37.0,14.0,39,30.40,10.0,North,3.5,-,N/A,,Clear,10,2014-01-17 22:55:00
4:55 PM,32.0,16.0,52,30.42,10.0,NW,3.5,-,N/A,,Clear,310,2014-01-17 23:55:00
5:55 PM,28.0,18.0,66,30.43,10.0,South,4.6,-,N/A,,Clear,190,2014-01-18 00:55:00
6:55 PM,27.0,16.0,63,30.45,10.0,Calm,Calm,-,N/A,,Clear,0,2014-01-18 01:55:00
7:55 PM,23.0,16.0,74,30.47,10.0,Calm,Calm,-,N/A,,Clear,0,2014-01-18 02:55:00
8:55 PM,21.9,15.1,75,30.48,10.0,Calm,Calm,-,N/A,,Clear,0,2014-01-18 03:55:00
9:55 PM,19.9,14.0,78,30.48,10.0,Calm,Calm,-,N/A,,Clear,0,2014-01-18 04:55:00
10:55 PM,19.0,14.0,81,30.49,10.0,Calm,Calm,-,N/A,,Clear,0,2014-01-18 05:55:00
11:55 PM,16.0,10.9,81,30.50,10.0,SSW,3.5,-,N/A,,Clear,210,2014-01-18 06:55:00